sensor_id;sensor_type;location;lat;lon;timestamp;P1;durP1;ratioP1;P2;durP2;ratioP2
79249;SDS011;68679;51.030;7.584;2023-07-30T00:01:06;8.90;;;3.50;;
79249;SDS011;68679;51.030;7.584;2023-07-30T00:03:32;6.13;;;3.47;;
79249;SDS011;68679;51.030;7.584;2023-07-30T00:05:57;7.97;;;3.83;;
79249;SDS011;68679;51.030;7.584;2023-07-30T00:08:22;6.43;;;3.40;;
79249;SDS011;68679;51.030;7.584;2023-07-30T00:10:48;5.85;;;2.90;;
79249;SDS011;68679;51.030;7.584;2023-07-30T00:13:13;6.53;;;3.40;;
79249;SDS011;68679;51.030;7.584;2023-07-30T00:15:39;8.53;;;3.50;;
79249;SDS011;68679;51.030;7.584;2023-07-30T00:18:04;8.63;;;3.23;;
79249;SDS011;68679;51.030;7.584;2023-07-30T00:20:29;8.87;;;3.27;;
79249;SDS011;68679;51.030;7.584;2023-07-30T00:22:54;5.37;;;3.13;;
79249;SDS011;68679;51.030;7.584;2023-07-30T00:25:20;6.57;;;3.50;;
79249;SDS011;68679;51.030;7.584;2023-07-30T00:27:45;5.50;;;3.23;;
79249;SDS011;68679;51.030;7.584;2023-07-30T00:30:10;4.50;;;2.83;;
79249;SDS011;68679;51.030;7.584;2023-07-30T00:32:36;7.72;;;3.20;;
79249;SDS011;68679;51.030;7.584;2023-07-30T00:35:05;6.93;;;3.05;;
79249;SDS011;68679;51.030;7.584;2023-07-30T00:37:31;8.98;;;3.58;;
79249;SDS011;68679;51.030;7.584;2023-07-30T00:39:56;7.47;;;3.37;;
79249;SDS011;68679;51.030;7.584;2023-07-30T00:42:21;9.07;;;3.40;;
79249;SDS011;68679;51.030;7.584;2023-07-30T00:44:47;7.20;;;2.80;;
79249;SDS011;68679;51.030;7.584;2023-07-30T00:47:12;6.90;;;3.40;;
79249;SDS011;68679;51.030;7.584;2023-07-30T00:49:38;5.88;;;3.20;;
79249;SDS011;68679;51.030;7.584;2023-07-30T00:52:04;6.13;;;3.10;;
79249;SDS011;68679;51.030;7.584;2023-07-30T00:54:30;8.82;;;3.00;;
79249;SDS011;68679;51.030;7.584;2023-07-30T00:56:55;6.45;;;3.25;;
79249;SDS011;68679;51.030;7.584;2023-07-30T00:59:21;6.10;;;2.80;;
79249;SDS011;68679;51.030;7.584;2023-07-30T01:01:47;6.38;;;2.90;;
79249;SDS011;68679;51.030;7.584;2023-07-30T01:04:13;7.82;;;3.40;;
79249;SDS011;68679;51.030;7.584;2023-07-30T01:06:41;6.22;;;2.88;;
79249;SDS011;68679;51.030;7.584;2023-07-30T01:09:07;6.75;;;3.78;;
79249;SDS011;68679;51.030;7.584;2023-07-30T01:11:33;6.65;;;3.35;;
79249;SDS011;68679;51.030;7.584;2023-07-30T01:13:59;7.10;;;3.42;;
79249;SDS011;68679;51.030;7.584;2023-07-30T01:16:25;7.18;;;3.10;;
79249;SDS011;68679;51.030;7.584;2023-07-30T01:18:50;5.75;;;3.17;;
79249;SDS011;68679;51.030;7.584;2023-07-30T01:21:16;5.47;;;2.90;;
79249;SDS011;68679;51.030;7.584;2023-07-30T01:23:41;6.30;;;3.00;;
79249;SDS011;68679;51.030;7.584;2023-07-30T01:26:20;4.30;;;2.83;;
79249;SDS011;68679;51.030;7.584;2023-07-30T01:28:49;4.78;;;2.83;;
79249;SDS011;68679;51.030;7.584;2023-07-30T01:31:19;6.82;;;3.13;;
79249;SDS011;68679;51.030;7.584;2023-07-30T01:33:48;4.85;;;2.97;;
79249;SDS011;68679;51.030;7.584;2023-07-30T01:36:17;7.55;;;2.80;;
79249;SDS011;68679;51.030;7.584;2023-07-30T01:38:44;10.45;;;2.95;;
79249;SDS011;68679;51.030;7.584;2023-07-30T01:41:10;8.57;;;3.45;;
79249;SDS011;68679;51.030;7.584;2023-07-30T01:43:35;11.47;;;3.20;;
79249;SDS011;68679;51.030;7.584;2023-07-30T01:46:00;7.38;;;3.03;;
79249;SDS011;68679;51.030;7.584;2023-07-30T01:48:26;4.53;;;2.77;;
79249;SDS011;68679;51.030;7.584;2023-07-30T01:50:51;6.53;;;3.20;;
79249;SDS011;68679;51.030;7.584;2023-07-30T01:53:17;8.77;;;3.03;;
79249;SDS011;68679;51.030;7.584;2023-07-30T01:55:42;5.20;;;2.83;;
79249;SDS011;68679;51.030;7.584;2023-07-30T01:58:11;5.57;;;3.30;;
79249;SDS011;68679;51.030;7.584;2023-07-30T02:00:38;9.20;;;3.17;;
79249;SDS011;68679;51.030;7.584;2023-07-30T02:03:03;6.25;;;2.90;;
79249;SDS011;68679;51.030;7.584;2023-07-30T02:05:29;8.30;;;2.90;;
79249;SDS011;68679;51.030;7.584;2023-07-30T02:07:54;5.25;;;2.45;;
79249;SDS011;68679;51.030;7.584;2023-07-30T02:10:20;8.00;;;3.10;;
79249;SDS011;68679;51.030;7.584;2023-07-30T02:12:45;10.00;;;3.00;;
79249;SDS011;68679;51.030;7.584;2023-07-30T02:15:10;7.57;;;2.87;;
79249;SDS011;68679;51.030;7.584;2023-07-30T02:17:35;9.67;;;3.20;;
79249;SDS011;68679;51.030;7.584;2023-07-30T02:20:01;6.60;;;3.03;;
79249;SDS011;68679;51.030;7.584;2023-07-30T02:22:26;9.87;;;2.83;;
79249;SDS011;68679;51.030;7.584;2023-07-30T02:24:51;7.67;;;2.90;;
79249;SDS011;68679;51.030;7.584;2023-07-30T02:27:17;6.37;;;2.97;;
79249;SDS011;68679;51.030;7.584;2023-07-30T02:29:42;15.77;;;3.00;;
79249;SDS011;68679;51.030;7.584;2023-07-30T02:32:07;9.57;;;3.10;;
79249;SDS011;68679;51.030;7.584;2023-07-30T02:34:33;6.20;;;3.03;;
79249;SDS011;68679;51.030;7.584;2023-07-30T02:36:58;7.73;;;3.07;;
79249;SDS011;68679;51.030;7.584;2023-07-30T02:39:23;5.17;;;2.87;;
79249;SDS011;68679;51.030;7.584;2023-07-30T02:41:49;8.17;;;3.10;;
79249;SDS011;68679;51.030;7.584;2023-07-30T02:44:14;5.00;;;3.00;;
79249;SDS011;68679;51.030;7.584;2023-07-30T02:46:39;7.60;;;3.10;;
79249;SDS011;68679;51.030;7.584;2023-07-30T02:49:05;4.63;;;3.00;;
79249;SDS011;68679;51.030;7.584;2023-07-30T02:51:30;11.40;;;3.00;;
79249;SDS011;68679;51.030;7.584;2023-07-30T02:53:57;12.30;;;3.10;;
79249;SDS011;68679;51.030;7.584;2023-07-30T02:56:26;4.60;;;2.75;;
79249;SDS011;68679;51.030;7.584;2023-07-30T02:58:51;4.73;;;2.67;;
79249;SDS011;68679;51.030;7.584;2023-07-30T03:01:16;5.53;;;2.80;;
79249;SDS011;68679;51.030;7.584;2023-07-30T03:03:42;5.67;;;2.93;;
79249;SDS011;68679;51.030;7.584;2023-07-30T03:06:07;5.90;;;2.87;;
79249;SDS011;68679;51.030;7.584;2023-07-30T03:08:32;5.87;;;3.23;;
79249;SDS011;68679;51.030;7.584;2023-07-30T03:10:58;4.83;;;2.60;;
79249;SDS011;68679;51.030;7.584;2023-07-30T03:13:24;4.57;;;2.72;;
79249;SDS011;68679;51.030;7.584;2023-07-30T03:15:50;4.35;;;2.63;;
79249;SDS011;68679;51.030;7.584;2023-07-30T03:18:15;4.83;;;2.70;;
79249;SDS011;68679;51.030;7.584;2023-07-30T03:20:40;9.40;;;3.10;;
79249;SDS011;68679;51.030;7.584;2023-07-30T03:23:05;6.97;;;2.63;;
79249;SDS011;68679;51.030;7.584;2023-07-30T03:25:31;8.63;;;3.60;;
79249;SDS011;68679;51.030;7.584;2023-07-30T03:27:56;3.47;;;2.40;;
79249;SDS011;68679;51.030;7.584;2023-07-30T03:30:21;5.20;;;3.00;;
79249;SDS011;68679;51.030;7.584;2023-07-30T03:32:47;5.70;;;2.63;;
79249;SDS011;68679;51.030;7.584;2023-07-30T03:35:12;6.67;;;2.93;;
79249;SDS011;68679;51.030;7.584;2023-07-30T03:37:37;4.90;;;2.80;;
79249;SDS011;68679;51.030;7.584;2023-07-30T03:40:03;4.78;;;2.50;;
79249;SDS011;68679;51.030;7.584;2023-07-30T03:42:29;5.80;;;2.78;;
79249;SDS011;68679;51.030;7.584;2023-07-30T03:44:54;5.90;;;3.10;;
79249;SDS011;68679;51.030;7.584;2023-07-30T03:47:19;6.73;;;2.70;;
79249;SDS011;68679;51.030;7.584;2023-07-30T03:49:45;7.43;;;2.90;;
79249;SDS011;68679;51.030;7.584;2023-07-30T03:52:10;8.07;;;2.70;;
79249;SDS011;68679;51.030;7.584;2023-07-30T03:54:35;5.27;;;2.73;;
79249;SDS011;68679;51.030;7.584;2023-07-30T03:57:00;5.43;;;2.57;;
79249;SDS011;68679;51.030;7.584;2023-07-30T03:59:26;7.73;;;2.77;;
79249;SDS011;68679;51.030;7.584;2023-07-30T04:01:53;11.35;;;3.15;;
79249;SDS011;68679;51.030;7.584;2023-07-30T04:04:18;5.90;;;2.90;;
79249;SDS011;68679;51.030;7.584;2023-07-30T04:06:44;4.87;;;2.83;;
79249;SDS011;68679;51.030;7.584;2023-07-30T04:09:09;6.13;;;2.80;;
79249;SDS011;68679;51.030;7.584;2023-07-30T04:11:34;5.20;;;2.90;;
79249;SDS011;68679;51.030;7.584;2023-07-30T04:13:59;6.87;;;2.80;;
79249;SDS011;68679;51.030;7.584;2023-07-30T04:16:25;7.45;;;2.83;;
79249;SDS011;68679;51.030;7.584;2023-07-30T04:18:50;10.80;;;3.63;;
79249;SDS011;68679;51.030;7.584;2023-07-30T04:21:15;5.97;;;2.67;;
79249;SDS011;68679;51.030;7.584;2023-07-30T04:23:41;6.47;;;2.80;;
79249;SDS011;68679;51.030;7.584;2023-07-30T04:26:06;5.67;;;3.13;;
79249;SDS011;68679;51.030;7.584;2023-07-30T04:28:31;6.13;;;3.35;;
79249;SDS011;68679;51.030;7.584;2023-07-30T04:30:57;10.57;;;3.27;;
79249;SDS011;68679;51.030;7.584;2023-07-30T04:33:22;11.60;;;3.37;;
79249;SDS011;68679;51.030;7.584;2023-07-30T04:35:47;7.50;;;3.07;;
79249;SDS011;68679;51.030;7.584;2023-07-30T04:38:13;10.85;;;3.58;;
79249;SDS011;68679;51.030;7.584;2023-07-30T04:40:38;5.93;;;3.37;;
79249;SDS011;68679;51.030;7.584;2023-07-30T04:43:04;5.38;;;3.15;;
79249;SDS011;68679;51.030;7.584;2023-07-30T04:45:29;6.57;;;3.00;;
79249;SDS011;68679;51.030;7.584;2023-07-30T04:47:54;6.77;;;3.30;;
79249;SDS011;68679;51.030;7.584;2023-07-30T04:50:19;7.83;;;3.03;;
79249;SDS011;68679;51.030;7.584;2023-07-30T04:52:45;6.43;;;3.10;;
79249;SDS011;68679;51.030;7.584;2023-07-30T04:55:10;7.27;;;3.10;;
79249;SDS011;68679;51.030;7.584;2023-07-30T04:57:35;6.60;;;2.60;;
79249;SDS011;68679;51.030;7.584;2023-07-30T05:00:01;7.03;;;3.00;;
79249;SDS011;68679;51.030;7.584;2023-07-30T05:02:26;6.70;;;2.77;;
79249;SDS011;68679;51.030;7.584;2023-07-30T05:04:51;7.30;;;3.17;;
79249;SDS011;68679;51.030;7.584;2023-07-30T05:07:16;7.67;;;3.07;;
79249;SDS011;68679;51.030;7.584;2023-07-30T05:09:42;7.90;;;2.47;;
79249;SDS011;68679;51.030;7.584;2023-07-30T05:12:07;9.77;;;2.93;;
79249;SDS011;68679;51.030;7.584;2023-07-30T05:14:32;8.07;;;3.13;;
79249;SDS011;68679;51.030;7.584;2023-07-30T05:16:58;6.13;;;2.77;;
79249;SDS011;68679;51.030;7.584;2023-07-30T05:19:23;9.33;;;2.83;;
79249;SDS011;68679;51.030;7.584;2023-07-30T05:21:48;9.43;;;3.03;;
79249;SDS011;68679;51.030;7.584;2023-07-30T05:24:14;5.97;;;2.80;;
79249;SDS011;68679;51.030;7.584;2023-07-30T05:26:39;11.60;;;2.93;;
79249;SDS011;68679;51.030;7.584;2023-07-30T05:29:04;10.73;;;3.53;;
79249;SDS011;68679;51.030;7.584;2023-07-30T05:31:30;6.23;;;2.73;;
79249;SDS011;68679;51.030;7.584;2023-07-30T05:33:55;7.30;;;2.77;;
79249;SDS011;68679;51.030;7.584;2023-07-30T05:36:20;10.15;;;2.65;;
79249;SDS011;68679;51.030;7.584;2023-07-30T05:38:45;7.20;;;2.77;;
79249;SDS011;68679;51.030;7.584;2023-07-30T05:41:11;7.20;;;2.70;;
79249;SDS011;68679;51.030;7.584;2023-07-30T05:43:36;5.70;;;2.73;;
79249;SDS011;68679;51.030;7.584;2023-07-30T05:46:01;9.87;;;3.00;;
79249;SDS011;68679;51.030;7.584;2023-07-30T05:48:27;11.57;;;2.50;;
79249;SDS011;68679;51.030;7.584;2023-07-30T05:50:52;5.82;;;2.85;;
79249;SDS011;68679;51.030;7.584;2023-07-30T05:53:17;11.00;;;3.00;;
79249;SDS011;68679;51.030;7.584;2023-07-30T05:55:42;9.10;;;2.90;;
79249;SDS011;68679;51.030;7.584;2023-07-30T05:58:08;8.67;;;2.70;;
79249;SDS011;68679;51.030;7.584;2023-07-30T06:00:33;8.50;;;3.30;;
79249;SDS011;68679;51.030;7.584;2023-07-30T06:02:58;8.93;;;2.83;;
79249;SDS011;68679;51.030;7.584;2023-07-30T06:05:24;6.77;;;2.80;;
79249;SDS011;68679;51.030;7.584;2023-07-30T06:07:49;7.00;;;2.73;;
79249;SDS011;68679;51.030;7.584;2023-07-30T06:10:14;5.50;;;2.30;;
79249;SDS011;68679;51.030;7.584;2023-07-30T06:12:40;7.93;;;2.80;;
79249;SDS011;68679;51.030;7.584;2023-07-30T06:15:05;13.83;;;3.43;;
79249;SDS011;68679;51.030;7.584;2023-07-30T06:17:31;6.97;;;2.72;;
79249;SDS011;68679;51.030;7.584;2023-07-30T06:19:57;7.73;;;3.10;;
79249;SDS011;68679;51.030;7.584;2023-07-30T06:22:22;6.53;;;2.50;;
79249;SDS011;68679;51.030;7.584;2023-07-30T06:24:47;6.77;;;2.90;;
79249;SDS011;68679;51.030;7.584;2023-07-30T06:27:12;5.20;;;2.60;;
79249;SDS011;68679;51.030;7.584;2023-07-30T06:29:38;7.17;;;2.30;;
79249;SDS011;68679;51.030;7.584;2023-07-30T06:32:03;12.10;;;2.58;;
79249;SDS011;68679;51.030;7.584;2023-07-30T06:34:29;8.05;;;2.15;;
79249;SDS011;68679;51.030;7.584;2023-07-30T06:36:55;6.13;;;2.57;;
79249;SDS011;68679;51.030;7.584;2023-07-30T06:39:20;7.87;;;2.33;;
79249;SDS011;68679;51.030;7.584;2023-07-30T06:41:46;5.53;;;1.83;;
79249;SDS011;68679;51.030;7.584;2023-07-30T06:44:11;8.98;;;2.42;;
79249;SDS011;68679;51.030;7.584;2023-07-30T06:46:37;6.53;;;2.10;;
79249;SDS011;68679;51.030;7.584;2023-07-30T06:49:02;7.37;;;2.20;;
79249;SDS011;68679;51.030;7.584;2023-07-30T06:51:27;6.43;;;2.10;;
79249;SDS011;68679;51.030;7.584;2023-07-30T06:53:53;6.35;;;2.70;;
79249;SDS011;68679;51.030;7.584;2023-07-30T06:56:18;4.87;;;2.20;;
79249;SDS011;68679;51.030;7.584;2023-07-30T06:58:44;12.40;;;2.28;;
79249;SDS011;68679;51.030;7.584;2023-07-30T07:01:09;5.97;;;2.10;;
79249;SDS011;68679;51.030;7.584;2023-07-30T07:03:34;9.55;;;2.50;;
79249;SDS011;68679;51.030;7.584;2023-07-30T07:06:00;4.90;;;2.00;;
79249;SDS011;68679;51.030;7.584;2023-07-30T07:08:25;7.57;;;2.40;;
79249;SDS011;68679;51.030;7.584;2023-07-30T07:10:52;8.32;;;2.33;;
79249;SDS011;68679;51.030;7.584;2023-07-30T07:13:17;6.15;;;2.08;;
79249;SDS011;68679;51.030;7.584;2023-07-30T07:15:43;6.40;;;2.03;;
79249;SDS011;68679;51.030;7.584;2023-07-30T07:18:08;5.82;;;2.20;;
79249;SDS011;68679;51.030;7.584;2023-07-30T07:20:35;4.93;;;1.73;;
79249;SDS011;68679;51.030;7.584;2023-07-30T07:23:00;5.53;;;2.05;;
79249;SDS011;68679;51.030;7.584;2023-07-30T07:25:26;6.72;;;2.53;;
79249;SDS011;68679;51.030;7.584;2023-07-30T07:27:51;6.90;;;1.90;;
79249;SDS011;68679;51.030;7.584;2023-07-30T07:30:16;7.27;;;2.23;;
79249;SDS011;68679;51.030;7.584;2023-07-30T07:32:42;5.75;;;2.28;;
79249;SDS011;68679;51.030;7.584;2023-07-30T07:35:07;8.40;;;2.17;;
79249;SDS011;68679;51.030;7.584;2023-07-30T07:37:33;7.32;;;2.13;;
79249;SDS011;68679;51.030;7.584;2023-07-30T07:39:58;5.37;;;1.93;;
79249;SDS011;68679;51.030;7.584;2023-07-30T07:42:23;5.97;;;2.30;;
79249;SDS011;68679;51.030;7.584;2023-07-30T07:44:49;7.22;;;2.30;;
79249;SDS011;68679;51.030;7.584;2023-07-30T07:47:15;8.82;;;2.30;;
79249;SDS011;68679;51.030;7.584;2023-07-30T07:49:40;5.82;;;1.92;;
79249;SDS011;68679;51.030;7.584;2023-07-30T07:52:06;9.43;;;2.33;;
79249;SDS011;68679;51.030;7.584;2023-07-30T07:54:31;6.45;;;2.17;;
79249;SDS011;68679;51.030;7.584;2023-07-30T07:56:57;6.60;;;2.30;;
79249;SDS011;68679;51.030;7.584;2023-07-30T07:59:23;8.20;;;2.27;;
79249;SDS011;68679;51.030;7.584;2023-07-30T08:01:48;8.73;;;2.80;;
79249;SDS011;68679;51.030;7.584;2023-07-30T08:04:14;11.45;;;2.78;;
79249;SDS011;68679;51.030;7.584;2023-07-30T08:06:39;8.57;;;2.53;;
79249;SDS011;68679;51.030;7.584;2023-07-30T08:09:04;7.25;;;3.20;;
79249;SDS011;68679;51.030;7.584;2023-07-30T08:11:30;7.07;;;2.45;;
79249;SDS011;68679;51.030;7.584;2023-07-30T08:13:55;7.83;;;2.70;;
79249;SDS011;68679;51.030;7.584;2023-07-30T08:16:22;8.40;;;2.90;;
79249;SDS011;68679;51.030;7.584;2023-07-30T08:18:47;9.35;;;2.72;;
79249;SDS011;68679;51.030;7.584;2023-07-30T08:21:15;9.93;;;3.37;;
79249;SDS011;68679;51.030;7.584;2023-07-30T08:23:42;7.18;;;2.70;;
79249;SDS011;68679;51.030;7.584;2023-07-30T08:26:08;12.95;;;3.13;;
79249;SDS011;68679;51.030;7.584;2023-07-30T08:28:33;14.17;;;2.73;;
79249;SDS011;68679;51.030;7.584;2023-07-30T08:31:01;6.60;;;2.27;;
79249;SDS011;68679;51.030;7.584;2023-07-30T08:33:29;6.78;;;3.03;;
79249;SDS011;68679;51.030;7.584;2023-07-30T08:35:55;9.88;;;2.50;;
79249;SDS011;68679;51.030;7.584;2023-07-30T08:38:21;12.55;;;2.92;;
79249;SDS011;68679;51.030;7.584;2023-07-30T08:40:47;7.00;;;2.55;;
79249;SDS011;68679;51.030;7.584;2023-07-30T08:43:12;7.83;;;2.60;;
79249;SDS011;68679;51.030;7.584;2023-07-30T08:45:38;6.20;;;2.40;;
79249;SDS011;68679;51.030;7.584;2023-07-30T08:48:03;6.80;;;2.45;;
79249;SDS011;68679;51.030;7.584;2023-07-30T08:50:29;6.95;;;2.72;;
79249;SDS011;68679;51.030;7.584;2023-07-30T08:52:55;7.05;;;2.60;;
79249;SDS011;68679;51.030;7.584;2023-07-30T08:55:20;8.07;;;2.95;;
79249;SDS011;68679;51.030;7.584;2023-07-30T08:57:47;6.95;;;2.70;;
79249;SDS011;68679;51.030;7.584;2023-07-30T09:00:14;7.95;;;2.75;;
79249;SDS011;68679;51.030;7.584;2023-07-30T09:02:49;7.30;;;2.95;;
79249;SDS011;68679;51.030;7.584;2023-07-30T09:05:17;8.50;;;3.00;;
79249;SDS011;68679;51.030;7.584;2023-07-30T09:07:45;9.65;;;3.35;;
79249;SDS011;68679;51.030;7.584;2023-07-30T09:10:10;10.20;;;3.10;;
79249;SDS011;68679;51.030;7.584;2023-07-30T09:12:35;8.50;;;3.30;;
79249;SDS011;68679;51.030;7.584;2023-07-30T09:15:02;6.28;;;3.50;;
79249;SDS011;68679;51.030;7.584;2023-07-30T09:17:29;9.60;;;4.00;;
79249;SDS011;68679;51.030;7.584;2023-07-30T09:19:55;6.97;;;3.45;;
79249;SDS011;68679;51.030;7.584;2023-07-30T09:22:41;10.37;;;2.93;;
79249;SDS011;68679;51.030;7.584;2023-07-30T09:25:06;8.15;;;3.05;;
79249;SDS011;68679;51.030;7.584;2023-07-30T09:27:32;5.68;;;2.10;;
79249;SDS011;68679;51.030;7.584;2023-07-30T09:29:58;5.97;;;2.67;;
79249;SDS011;68679;51.030;7.584;2023-07-30T09:32:30;5.45;;;2.80;;
79249;SDS011;68679;51.030;7.584;2023-07-30T09:35:07;6.72;;;2.70;;
79249;SDS011;68679;51.030;7.584;2023-07-30T09:37:39;9.13;;;3.25;;
79249;SDS011;68679;51.030;7.584;2023-07-30T09:40:06;10.30;;;2.80;;
79249;SDS011;68679;51.030;7.584;2023-07-30T09:42:33;8.57;;;2.60;;
79249;SDS011;68679;51.030;7.584;2023-07-30T09:45:02;8.70;;;4.05;;
79249;SDS011;68679;51.030;7.584;2023-07-30T09:47:30;4.45;;;2.47;;
79249;SDS011;68679;51.030;7.584;2023-07-30T09:49:55;8.35;;;3.38;;
79249;SDS011;68679;51.030;7.584;2023-07-30T09:52:21;8.35;;;2.53;;
79249;SDS011;68679;51.030;7.584;2023-07-30T09:54:47;12.13;;;3.60;;
79249;SDS011;68679;51.030;7.584;2023-07-30T09:57:17;7.80;;;3.00;;
79249;SDS011;68679;51.030;7.584;2023-07-30T09:59:42;7.20;;;3.65;;
79249;SDS011;68679;51.030;7.584;2023-07-30T10:02:08;6.47;;;2.80;;
79249;SDS011;68679;51.030;7.584;2023-07-30T10:04:34;9.57;;;2.80;;
79249;SDS011;68679;51.030;7.584;2023-07-30T10:07:08;6.55;;;2.35;;
79249;SDS011;68679;51.030;7.584;2023-07-30T10:09:41;8.95;;;3.47;;
79249;SDS011;68679;51.030;7.584;2023-07-30T10:12:12;11.10;;;3.42;;
79249;SDS011;68679;51.030;7.584;2023-07-30T10:14:40;7.93;;;2.35;;
79249;SDS011;68679;51.030;7.584;2023-07-30T10:17:09;7.93;;;2.55;;
79249;SDS011;68679;51.030;7.584;2023-07-30T10:19:35;8.57;;;2.67;;
79249;SDS011;68679;51.030;7.584;2023-07-30T10:22:19;12.57;;;2.80;;
79249;SDS011;68679;51.030;7.584;2023-07-30T10:27:25;9.38;;;2.28;;
79249;SDS011;68679;51.030;7.584;2023-07-30T10:30:13;8.82;;;2.30;;
79249;SDS011;68679;51.030;7.584;2023-07-30T10:41:02;11.48;;;2.13;;
79249;SDS011;68679;51.030;7.584;2023-07-30T10:43:31;6.70;;;2.13;;
79249;SDS011;68679;51.030;7.584;2023-07-30T10:46:00;10.43;;;2.55;;
79249;SDS011;68679;51.030;7.584;2023-07-30T10:48:29;8.95;;;2.38;;
79249;SDS011;68679;51.030;7.584;2023-07-30T10:51:00;6.50;;;2.17;;
79249;SDS011;68679;51.030;7.584;2023-07-30T10:53:26;7.70;;;2.72;;
79249;SDS011;68679;51.030;7.584;2023-07-30T10:55:52;5.75;;;2.17;;
79249;SDS011;68679;51.030;7.584;2023-07-30T10:58:19;7.55;;;2.00;;
79249;SDS011;68679;51.030;7.584;2023-07-30T11:00:45;5.80;;;1.88;;
79249;SDS011;68679;51.030;7.584;2023-07-30T11:03:11;8.33;;;2.20;;
79249;SDS011;68679;51.030;7.584;2023-07-30T11:05:39;9.47;;;2.27;;
79249;SDS011;68679;51.030;7.584;2023-07-30T11:08:04;6.43;;;1.92;;
79249;SDS011;68679;51.030;7.584;2023-07-30T11:10:30;5.20;;;1.58;;
79249;SDS011;68679;51.030;7.584;2023-07-30T11:12:55;6.47;;;1.92;;
79249;SDS011;68679;51.030;7.584;2023-07-30T11:15:22;5.32;;;1.50;;
79249;SDS011;68679;51.030;7.584;2023-07-30T11:17:47;9.77;;;1.90;;
79249;SDS011;68679;51.030;7.584;2023-07-30T11:20:27;7.35;;;2.15;;
79249;SDS011;68679;51.030;7.584;2023-07-30T11:22:55;6.68;;;2.00;;
79249;SDS011;68679;51.030;7.584;2023-07-30T11:25:20;7.35;;;1.95;;
79249;SDS011;68679;51.030;7.584;2023-07-30T11:27:49;7.43;;;1.52;;
79249;SDS011;68679;51.030;7.584;2023-07-30T11:30:16;4.60;;;1.70;;
79249;SDS011;68679;51.030;7.584;2023-07-30T11:32:42;5.15;;;1.73;;
79249;SDS011;68679;51.030;7.584;2023-07-30T11:35:09;5.90;;;2.08;;
79249;SDS011;68679;51.030;7.584;2023-07-30T11:37:36;9.73;;;1.70;;
79249;SDS011;68679;51.030;7.584;2023-07-30T11:40:06;6.55;;;1.92;;
79249;SDS011;68679;51.030;7.584;2023-07-30T11:42:33;6.15;;;1.50;;
79249;SDS011;68679;51.030;7.584;2023-07-30T11:45:01;5.07;;;1.80;;
79249;SDS011;68679;51.030;7.584;2023-07-30T11:47:42;5.20;;;1.30;;
79249;SDS011;68679;51.030;7.584;2023-07-30T11:50:07;6.53;;;1.57;;
79249;SDS011;68679;51.030;7.584;2023-07-30T11:52:33;6.68;;;1.60;;
79249;SDS011;68679;51.030;7.584;2023-07-30T11:55:02;6.35;;;1.70;;
79249;SDS011;68679;51.030;7.584;2023-07-30T11:57:34;6.30;;;1.55;;
79249;SDS011;68679;51.030;7.584;2023-07-30T11:59:59;5.30;;;1.65;;
79249;SDS011;68679;51.030;7.584;2023-07-30T12:02:25;6.72;;;1.30;;
79249;SDS011;68679;51.030;7.584;2023-07-30T12:04:51;4.28;;;1.55;;
79249;SDS011;68679;51.030;7.584;2023-07-30T12:07:22;5.65;;;1.30;;
79249;SDS011;68679;51.030;7.584;2023-07-30T12:09:49;5.65;;;1.33;;
79249;SDS011;68679;51.030;7.584;2023-07-30T12:12:15;7.65;;;1.83;;
79249;SDS011;68679;51.030;7.584;2023-07-30T12:14:58;8.23;;;1.70;;
79249;SDS011;68679;51.030;7.584;2023-07-30T12:17:24;3.83;;;1.30;;
79249;SDS011;68679;51.030;7.584;2023-07-30T12:19:49;4.80;;;1.30;;
79249;SDS011;68679;51.030;7.584;2023-07-30T12:22:14;6.47;;;1.80;;
79249;SDS011;68679;51.030;7.584;2023-07-30T12:24:40;5.72;;;1.75;;
79249;SDS011;68679;51.030;7.584;2023-07-30T12:27:06;4.28;;;1.33;;
79249;SDS011;68679;51.030;7.584;2023-07-30T12:29:32;6.13;;;1.65;;
79249;SDS011;68679;51.030;7.584;2023-07-30T12:31:57;6.00;;;1.53;;
79249;SDS011;68679;51.030;7.584;2023-07-30T12:34:23;5.47;;;1.50;;
79249;SDS011;68679;51.030;7.584;2023-07-30T12:36:48;5.72;;;1.95;;
79249;SDS011;68679;51.030;7.584;2023-07-30T12:39:14;6.53;;;1.70;;
79249;SDS011;68679;51.030;7.584;2023-07-30T12:41:39;6.63;;;2.07;;
79249;SDS011;68679;51.030;7.584;2023-07-30T12:44:04;6.43;;;1.87;;
79249;SDS011;68679;51.030;7.584;2023-07-30T12:46:30;6.63;;;1.60;;
79249;SDS011;68679;51.030;7.584;2023-07-30T12:48:57;9.40;;;1.88;;
79249;SDS011;68679;51.030;7.584;2023-07-30T12:51:22;7.55;;;1.88;;
79249;SDS011;68679;51.030;7.584;2023-07-30T12:53:48;6.57;;;1.83;;
79249;SDS011;68679;51.030;7.584;2023-07-30T12:56:16;6.67;;;1.63;;
79249;SDS011;68679;51.030;7.584;2023-07-30T12:58:41;4.53;;;1.52;;
79249;SDS011;68679;51.030;7.584;2023-07-30T13:01:07;5.50;;;1.63;;
79249;SDS011;68679;51.030;7.584;2023-07-30T13:03:32;7.87;;;1.80;;
79249;SDS011;68679;51.030;7.584;2023-07-30T13:06:01;7.22;;;1.40;;
79249;SDS011;68679;51.030;7.584;2023-07-30T13:08:26;2.97;;;1.27;;
79249;SDS011;68679;51.030;7.584;2023-07-30T13:10:51;5.80;;;1.43;;
79249;SDS011;68679;51.030;7.584;2023-07-30T13:13:16;9.57;;;2.20;;
79249;SDS011;68679;51.030;7.584;2023-07-30T13:15:42;6.37;;;1.37;;
79249;SDS011;68679;51.030;7.584;2023-07-30T13:18:07;5.43;;;1.57;;
79249;SDS011;68679;51.030;7.584;2023-07-30T13:20:32;5.23;;;1.73;;
79249;SDS011;68679;51.030;7.584;2023-07-30T13:22:58;5.27;;;1.90;;
79249;SDS011;68679;51.030;7.584;2023-07-30T13:25:23;6.10;;;1.45;;
79249;SDS011;68679;51.030;7.584;2023-07-30T13:27:49;5.60;;;1.40;;
79249;SDS011;68679;51.030;7.584;2023-07-30T13:30:15;6.72;;;1.58;;
79249;SDS011;68679;51.030;7.584;2023-07-30T13:32:40;4.70;;;1.58;;
79249;SDS011;68679;51.030;7.584;2023-07-30T13:35:05;7.50;;;2.00;;
79249;SDS011;68679;51.030;7.584;2023-07-30T13:37:31;5.18;;;1.35;;
79249;SDS011;68679;51.030;7.584;2023-07-30T13:39:56;9.45;;;1.67;;
79249;SDS011;68679;51.030;7.584;2023-07-30T13:42:21;8.67;;;1.57;;
79249;SDS011;68679;51.030;7.584;2023-07-30T13:44:47;5.80;;;1.50;;
79249;SDS011;68679;51.030;7.584;2023-07-30T13:47:12;6.77;;;2.10;;
79249;SDS011;68679;51.030;7.584;2023-07-30T13:49:37;5.33;;;1.77;;
79249;SDS011;68679;51.030;7.584;2023-07-30T13:52:03;6.73;;;1.90;;
79249;SDS011;68679;51.030;7.584;2023-07-30T13:54:28;7.28;;;1.60;;
79249;SDS011;68679;51.030;7.584;2023-07-30T13:56:53;5.87;;;1.67;;
79249;SDS011;68679;51.030;7.584;2023-07-30T13:59:19;5.20;;;1.50;;
79249;SDS011;68679;51.030;7.584;2023-07-30T14:01:44;4.70;;;1.43;;
79249;SDS011;68679;51.030;7.584;2023-07-30T14:04:09;5.70;;;1.50;;
79249;SDS011;68679;51.030;7.584;2023-07-30T14:06:35;7.60;;;1.70;;
79249;SDS011;68679;51.030;7.584;2023-07-30T14:09:01;6.78;;;1.67;;
79249;SDS011;68679;51.030;7.584;2023-07-30T14:11:28;4.97;;;1.58;;
79249;SDS011;68679;51.030;7.584;2023-07-30T14:13:53;5.37;;;1.40;;
79249;SDS011;68679;51.030;7.584;2023-07-30T14:16:19;6.85;;;1.67;;
79249;SDS011;68679;51.030;7.584;2023-07-30T14:18:44;5.40;;;1.73;;
79249;SDS011;68679;51.030;7.584;2023-07-30T14:21:09;10.40;;;1.73;;
79249;SDS011;68679;51.030;7.584;2023-07-30T14:23:36;3.60;;;1.40;;
79249;SDS011;68679;51.030;7.584;2023-07-30T14:26:01;5.88;;;1.65;;
79249;SDS011;68679;51.030;7.584;2023-07-30T14:28:27;6.85;;;1.60;;
79249;SDS011;68679;51.030;7.584;2023-07-30T14:30:52;8.93;;;2.25;;
79249;SDS011;68679;51.030;7.584;2023-07-30T14:33:18;2.88;;;1.30;;
79249;SDS011;68679;51.030;7.584;2023-07-30T14:35:43;7.68;;;1.52;;
79249;SDS011;68679;51.030;7.584;2023-07-30T14:38:08;5.25;;;1.80;;
79249;SDS011;68679;51.030;7.584;2023-07-30T14:40:34;7.68;;;1.73;;
79249;SDS011;68679;51.030;7.584;2023-07-30T14:43:00;6.10;;;1.70;;
79249;SDS011;68679;51.030;7.584;2023-07-30T14:45:25;5.47;;;2.00;;
79249;SDS011;68679;51.030;7.584;2023-07-30T14:47:50;5.03;;;1.60;;
79249;SDS011;68679;51.030;7.584;2023-07-30T14:50:16;7.60;;;1.50;;